Time;durP1;ratioP1;P1;durP2;ratioP2;P2;SDS_P1;SDS_P2;PMS_P1;PMS_P2;Temp;Humidity;BMP_temperature;BMP_pressure;BME280_temperature;BME280_humidity;BME280_pressure;Samples;Min_cycle;Max_cycle;Signal;HPM_P1;HPM_P2
2022/03/22 00:00:49;;;;;;;14.27;9.68;;;;;;;11.03;67.96;101195.34;5003349;28;20072;-91
2022/03/22 00:03:14;;;;;;;15.35;9.75;;;;;;;11.01;67.81;101200.81;5001324;28;20037;-90
2022/03/22 00:05:42;;;;;;;11.95;9.50;;;;;;;11.02;67.80;101196.31;5002213;28;20096;-91
2022/03/22 00:08:10;;;;;;;16.52;9.82;;;;;;;11.01;67.89;101195.47;5000486;28;20120;-90
2022/03/22 00:10:36;;;;;;;15.40;10.10;;;;;;;11.00;67.82;101195.56;5002005;28;20079;-91
2022/03/22 00:13:04;;;;;;;12.90;9.25;;;;;;;11.01;67.65;101194.63;5001656;28;20124;-91
2022/03/22 00:15:29;;;;;;;12.85;9.82;;;;;;;11.06;68.38;101197.81;5000869;28;20080;-91
2022/03/22 00:17:55;;;;;;;13.98;10.18;;;;;;;11.06;68.14;101197.81;5000543;28;20029;-91
2022/03/22 00:20:20;;;;;;;14.85;11.18;;;;;;;11.08;68.33;101200.38;5000515;28;20450;-91
2022/03/22 00:22:46;;;;;;;13.60;10.23;;;;;;;11.02;67.98;101194.50;5001102;28;20067;-89
2022/03/22 00:25:11;;;;;;;13.38;10.57;;;;;;;10.98;68.08;101194.84;4999902;28;20026;-90
2022/03/22 00:27:52;;;;;;;14.82;10.35;;;;;;;10.92;67.35;101195.28;5000203;28;20033;-90
2022/03/22 00:30:25;;;;;;;15.15;11.35;;;;;;;10.89;67.53;101196.34;5004166;28;20021;-90
2022/03/22 00:32:53;;;;;;;13.55;10.18;;;;;;;10.91;67.29;101199.78;4999166;28;20037;-91
2022/03/22 00:35:20;;;;;;;13.27;10.10;;;;;;;10.93;67.47;101196.97;5014544;28;20029;-91
2022/03/22 00:37:49;;;;;;;13.20;10.57;;;;;;;10.90;67.40;101203.41;4999187;28;20048;-90
2022/03/22 00:40:16;;;;;;;;;;;;;;;10.92;67.22;101204.16;5017269;28;20394;-90
2022/03/22 00:42:42;;;;;;;13.73;10.68;;;;;;;10.91;67.34;101201.59;4999452;28;20378;-90
2022/03/22 00:45:08;;;;;;;13.68;10.65;;;;;;;10.86;66.46;101203.72;5000906;28;20788;-91
2022/03/22 00:47:33;;;;;;;15.68;11.50;;;;;;;10.84;66.87;101203.81;5000495;28;20112;-91
2022/03/22 00:50:00;;;;;;;15.57;10.85;;;;;;;10.86;66.79;101206.38;5001655;28;20486;-91
2022/03/22 00:52:25;;;;;;;13.95;10.57;;;;;;;10.88;67.74;101201.78;5017005;28;20120;-89
2022/03/22 00:54:51;;;;;;;16.45;10.70;;;;;;;10.87;67.67;101197.41;5001671;28;20602;-90
2022/03/22 00:57:18;;;;;;;13.40;10.55;;;;;;;10.86;67.24;101196.53;5018969;28;20987;-90
2022/03/22 01:00:01;;;;;;;13.55;10.43;;;;;;;10.90;67.89;101205.22;5018483;28;20037;-91
2022/03/22 01:02:27;;;;;;;14.38;10.85;;;;;;;10.85;67.27;101202.84;5003350;28;20040;-90
2022/03/22 01:04:53;;;;;;;15.20;11.02;;;;;;;10.85;67.84;101202.84;5003322;28;20376;-91
2022/03/22 01:07:18;;;;;;;14.25;10.57;;;;;;;10.84;67.40;101200.28;5001150;28;20124;-91
2022/03/22 01:09:43;;;;;;;14.95;10.35;;;;;;;10.81;67.40;101200.50;5002293;28;20057;-90
2022/03/22 01:12:09;;;;;;;15.77;11.02;;;;;;;10.76;67.17;101192.81;5002301;28;20065;-90
2022/03/22 01:14:34;;;;;;;17.33;11.77;;;;;;;10.73;66.81;101196.56;5002397;28;20025;-90
2022/03/22 01:17:00;;;;;;;14.32;11.60;;;;;;;10.71;66.58;101195.81;5003243;28;20052;-90
2022/03/22 01:19:25;;;;;;;17.02;11.27;;;;;;;10.69;66.43;101200.41;5001757;28;21343;-90
2022/03/22 01:21:51;;;;;;;14.50;11.57;;;;;;;10.68;66.62;101198.69;5001497;28;20037;-90
2022/03/22 01:24:17;;;;;;;16.60;11.40;;;;;;;10.65;66.53;101201.59;5000447;28;20029;-91
2022/03/22 01:26:42;;;;;;;17.13;11.48;;;;;;;10.61;67.05;101197.44;5018400;28;20040;-90
2022/03/22 01:29:10;;;;;;;15.00;11.55;;;;;;;10.58;66.58;101192.28;5000635;28;20483;-90
2022/03/22 01:31:35;;;;;;;15.73;12.20;;;;;;;10.54;66.81;101195.28;5002177;28;20029;-90
2022/03/22 01:34:01;;;;;;;17.42;11.80;;;;;;;10.51;67.21;101198.19;5002689;28;20089;-90
2022/03/22 01:36:28;;;;;;;15.77;12.02;;;;;;;10.50;67.81;101196.47;5015749;28;20053;-90
2022/03/22 01:38:54;;;;;;;16.67;12.18;;;;;;;10.45;67.93;101193.25;5015474;28;20402;-90
2022/03/22 01:41:19;;;;;;;15.00;11.98;;;;;;;10.45;68.17;101198.59;5000516;28;20149;-90
2022/03/22 01:43:44;;;;;;;17.27;12.02;;;;;;;10.40;68.22;101193.56;5002090;28;20116;-90
2022/03/22 01:46:12;;;;;;;16.80;11.95;;;;;;;10.38;69.04;101188.31;5000423;28;20993;-91
2022/03/22 01:48:37;;;;;;;17.48;11.75;;;;;;;10.36;69.28;101195.59;4999507;28;20044;-90
2022/03/22 01:51:02;;;;;;;17.88;12.00;;;;;;;10.33;69.19;101190.44;5002183;28;20635;-90
2022/03/22 01:53:29;;;;;;;14.52;11.85;;;;;;;10.28;69.23;101191.72;5002408;28;20063;-90
2022/03/22 01:55:55;;;;;;;15.73;11.38;;;;;;;10.29;69.52;101188.09;5016273;28;20398;-90
2022/03/22 01:58:20;;;;;;;16.50;12.93;;;;;;;10.29;69.47;101188.94;5001239;28;20079;-90
2022/03/22 02:05:51;;;;;;;15.00;11.55;;;;;;;10.25;69.57;101179.44;5002401;28;20082;-89
2022/03/22 02:06:21;;;;;;;15.82;11.75;;;;;;;10.23;69.42;101178.69;5017267;28;20036;-91
2022/03/22 02:08:46;;;;;;;13.82;11.57;;;;;;;10.22;69.58;101179.63;5018146;28;20034;-91
2022/03/22 02:11:12;;;;;;;17.20;12.20;;;;;;;10.18;69.94;101167.41;5001406;28;20032;-90
2022/03/22 02:13:37;;;;;;;14.23;11.50;;;;;;;10.19;70.05;101168.28;5000157;28;20040;-90
2022/03/22 02:16:03;;;;;;;14.80;11.25;;;;;;;10.17;70.33;101170.19;5000827;28;20033;-90
2022/03/22 02:18:28;;;;;;;15.45;11.60;;;;;;;10.13;70.37;101174.91;5000577;28;20033;-90
2022/03/22 02:20:54;;;;;;;15.75;12.27;;;;;;;10.08;70.08;101172.53;4999698;28;20026;-90
2022/03/22 02:23:21;;;;;;;14.50;11.23;;;;;;;10.09;70.46;101174.25;5002178;28;20029;-91
2022/03/22 02:25:50;;;;;;;18.23;12.15;;;;;;;10.06;69.89;101165.59;5017678;28;20403;-90
2022/03/22 02:28:16;;;;;;;15.75;11.60;;;;;;;10.06;70.35;101162.91;5021117;28;20025;-90
2022/03/22 02:30:44;;;;;;;16.05;11.60;;;;;;;10.04;70.23;101168.38;5022404;28;20661;-91
2022/03/22 02:33:11;;;;;;;16.03;12.53;;;;;;;9.97;70.38;101171.56;5000063;28;20095;-91
2022/03/22 02:35:36;;;;;;;16.48;11.73;;;;;;;9.93;70.65;101170.03;5017360;28;20499;-90
2022/03/22 02:38:04;;;;;;;16.40;12.50;;;;;;;9.88;70.53;101169.50;5001691;28;20029;-90
2022/03/22 02:40:29;;;;;;;17.15;11.82;;;;;;;9.92;70.73;101173.66;5015431;28;20123;-90
2022/03/22 02:42:58;;;;;;;16.23;12.13;;;;;;;9.89;70.54;101166.72;5014687;28;21002;-89
2022/03/22 02:45:24;;;;;;;15.43;12.00;;;;;;;9.87;70.79;101168.63;4999801;28;20046;-91
2022/03/22 02:47:49;;;;;;;15.93;11.13;;;;;;;9.90;70.89;101171.09;5016302;28;20099;-90
2022/03/22 02:50:15;;;;;;;18.15;11.98;;;;;;;9.87;70.82;101167.78;5004202;28;20026;-89
2022/03/22 02:52:41;;;;;;;16.65;11.55;;;;;;;9.87;70.70;101165.97;5022140;28;20053;-90
2022/03/22 02:55:08;;;;;;;14.80;11.32;;;;;;;9.88;69.86;101170.34;5004490;28;20494;-89
2022/03/22 02:57:34;;;;;;;15.05;11.85;;;;;;;9.87;70.31;101165.09;5019982;28;20041;-91
2022/03/22 03:00:01;;;;;;;15.48;11.23;;;;;;;9.84;70.37;101168.84;5021454;28;20152;-90
2022/03/22 03:02:26;;;;;;;17.50;11.60;;;;;;;9.85;70.30;101167.03;5003799;28;20133;-90
2022/03/22 03:04:52;;;;;;;16.83;11.40;;;;;;;9.84;70.46;101162.63;5004133;28;20112;-90
2022/03/22 03:07:17;;;;;;;16.08;12.30;;;;;;;9.79;69.94;101163.81;5001577;28;20026;-90
2022/03/22 03:09:42;;;;;;;15.15;10.75;;;;;;;9.81;70.24;101165.53;5020663;28;20372;-90
2022/03/22 03:12:08;;;;;;;16.38;11.80;;;;;;;9.79;70.28;101173.63;5005502;28;20861;-90
2022/03/22 03:14:40;;;;;;;15.70;11.90;;;;;;;9.77;70.63;101176.41;5003561;28;20042;-91
2022/03/22 03:17:07;;;;;;;16.02;11.60;;;;;;;9.70;70.13;101172.44;5001787;28;20018;-90
2022/03/22 03:19:32;;;;;;;15.68;11.73;;;;;;;9.70;70.47;101177.78;5017220;28;20036;-90
2022/03/22 03:21:58;;;;;;;14.57;11.55;;;;;;;9.66;70.78;101175.41;5002083;28;20041;-91
2022/03/22 03:24:23;;;;;;;14.75;11.02;;;;;;;9.64;70.41;101177.34;5020312;28;20407;-90
2022/03/22 03:26:49;;;;;;;15.75;12.07;;;;;;;9.64;70.61;101167.50;5003117;28;20030;-89
2022/03/22 03:29:14;;;;;;;16.73;11.73;;;;;;;9.65;71.06;101173.72;5002193;28;20029;-90
2022/03/22 03:31:40;;;;;;;13.10;11.20;;;;;;;9.64;70.53;101177.34;5005457;28;20034;-89
2022/03/22 03:34:05;;;;;;;15.07;11.73;;;;;;;9.54;70.55;101185.09;5001556;28;20028;-90
2022/03/22 03:36:30;;;;;;;15.80;11.45;;;;;;;9.53;71.16;101183.38;5004214;28;20030;-89
2022/03/22 03:39:02;;;;;;;16.33;11.52;;;;;;;9.49;71.00;101184.56;5019912;28;20026;-91
2022/03/22 03:47:04;;;;;;;15.45;11.45;;;;;;;9.55;70.43;101191.31;5019113;28;20784;-90
2022/03/22 03:49:32;;;;;;;14.65;10.70;;;;;;;9.54;70.51;101194.94;5004704;28;20132;-89
2022/03/22 03:51:58;;;;;;;16.77;11.83;;;;;;;9.51;70.64;101196.00;5017182;28;20067;-90
2022/03/22 03:54:23;;;;;;;15.20;11.73;;;;;;;9.49;70.72;101197.03;5002611;28;20069;-90
2022/03/22 03:56:48;;;;;;;15.38;11.60;;;;;;;9.46;70.92;101196.28;5019153;28;20105;-90
2022/03/22 03:59:18;;;;;;;15.55;12.23;;;;;;;9.45;70.92;101196.34;5001888;28;20030;-91
2022/03/22 04:01:44;;;;;;;15.15;11.38;;;;;;;9.47;70.41;101199.81;5001059;28;20068;-90
2022/03/22 04:04:09;;;;;;;16.65;11.95;;;;;;;9.49;70.73;101205.91;5002594;28;20061;-90
2022/03/22 04:06:34;;;;;;;15.80;11.55;;;;;;;9.50;69.97;101204.97;5001591;28;20033;-89
2022/03/22 04:09:00;;;;;;;15.60;12.35;;;;;;;9.46;70.46;101206.13;5001562;28;20117;-90
2022/03/22 04:11:25;;;;;;;14.35;11.32;;;;;;;9.45;70.43;101212.38;5018926;28;20179;-90
2022/03/22 04:13:50;;;;;;;14.80;11.07;;;;;;;9.39;70.71;101213.63;5001733;28;20037;-90
2022/03/22 04:16:16;;;;;;;15.27;11.50;;;;;;;9.36;70.18;101205.81;5005491;28;20073;-90
2022/03/22 04:18:41;;;;;;;15.45;12.10;;;;;;;9.38;70.21;101209.25;5003285;28;20033;-90
2022/03/22 04:21:07;;;;;;;15.95;12.25;;;;;;;9.35;70.46;101208.59;5005075;28;20479;-90
2022/03/22 04:23:32;;;;;;;14.18;11.85;;;;;;;9.33;70.32;101210.50;5004948;28;20641;-89
2022/03/22 04:25:58;;;;;;;16.77;12.20;;;;;;;9.33;70.28;101205.16;5001721;28;20091;-91
2022/03/22 04:33:52;;;;;;;15.60;11.27;;;;;;;9.32;69.83;101212.31;5019401;28;20037;-89
2022/03/22 04:36:18;;;;;;;15.65;12.15;;;;;;;9.29;69.99;101209.00;5020111;28;20212;-91
2022/03/22 04:38:43;;;;;;;16.20;11.73;;;;;;;9.32;70.10;101211.47;5011351;28;20040;-90
2022/03/22 04:41:08;;;;;;;16.30;12.48;;;;;;;9.32;70.17;101206.13;5017447;28;20250;-90
2022/03/22 04:43:34;;;;;;;16.83;12.73;;;;;;;9.29;69.72;101206.31;5001086;28;20053;-90
2022/03/22 04:46:01;;;;;;;16.63;12.00;;;;;;;9.27;69.89;101203.75;5001781;28;20068;-90
2022/03/22 04:48:26;;;;;;;17.98;12.65;;;;;;;9.28;69.75;101200.13;5003466;28;20708;-90
2022/03/22 04:56:43;;;;;;;17.23;12.65;;;;;;;9.28;69.67;101207.28;5003123;28;20025;-90
2022/03/22 04:59:05;;;;;;;18.85;12.52;;;;;;;9.18;70.16;101204.34;5019536;28;20040;-90
2022/03/22 05:01:30;;;;;;;17.67;11.80;;;;;;;9.19;69.71;101205.22;5001534;28;20025;-90
2022/03/22 05:03:55;;;;;;;18.67;12.07;;;;;;;9.19;70.01;101211.41;5002614;28;20026;-91
2022/03/22 05:06:27;;;;;;;17.95;12.88;;;;;;;9.14;69.85;101209.03;5002163;28;20026;-91
2022/03/22 05:08:55;;;;;;;18.58;12.15;;;;;;;9.12;69.88;101216.28;5002014;28;20608;-90
2022/03/22 05:11:21;;;;;;;16.30;12.00;;;;;;;9.16;70.08;101216.94;5015659;28;20061;-91
2022/03/22 05:13:47;;;;;;;16.75;12.07;;;;;;;9.17;69.82;101220.47;5002269;28;20176;-91
2022/03/22 05:16:12;;;;;;;17.30;12.43;;;;;;;9.13;69.66;101211.78;5002317;28;20117;-90
2022/03/22 05:18:42;;;;;;;16.27;12.15;;;;;;;9.09;69.76;101218.28;5001499;28;20033;-90
2022/03/22 05:21:08;;;;;;;18.67;12.85;;;;;;;9.11;69.98;101219.03;5014630;28;20033;-91
2022/03/22 05:23:34;;;;;;;16.13;12.30;;;;;;;9.07;69.89;101222.84;4999241;28;20033;-90
2022/03/22 05:25:59;;;;;;;17.52;12.20;;;;;;;9.07;69.87;101220.19;5017228;28;20033;-91
2022/03/22 05:28:24;;;;;;;18.67;13.50;;;;;;;9.07;69.77;101222.84;5035157;28;20483;-91
2022/03/22 05:30:50;;;;;;;16.83;11.82;;;;;;;9.05;70.05;101230.09;5018427;28;20097;-90
2022/03/22 05:33:15;;;;;;;15.15;11.45;;;;;;;9.03;69.84;101230.19;5017946;28;20033;-90
2022/03/22 05:35:40;;;;;;;17.30;12.35;;;;;;;9.04;70.33;101225.72;5016498;28;20026;-90
2022/03/22 05:38:06;;;;;;;16.55;12.25;;;;;;;9.03;69.69;101230.19;5001187;28;20033;-90
2022/03/22 05:40:31;;;;;;;17.73;12.60;;;;;;;9.01;70.01;101228.59;5002591;28;20094;-91
2022/03/22 05:42:57;;;;;;;17.95;13.18;;;;;;;9.04;70.25;101226.59;4998368;28;20040;-88
2022/03/22 05:45:23;;;;;;;17.02;12.32;;;;;;;9.01;70.17;101231.25;5000597;28;20459;-90
2022/03/22 05:47:50;;;;;;;16.80;12.25;;;;;;;9.02;70.73;101240.97;5000865;28;20495;-90
2022/03/22 05:50:15;;;;;;;15.90;12.55;;;;;;;9.00;70.60;101234.88;5017769;28;20049;-90
2022/03/22 05:52:45;;;;;;;18.67;12.90;;;;;;;8.94;70.51;101233.41;5020178;28;20110;-90
2022/03/22 05:55:12;;;;;;;18.23;12.38;;;;;;;8.87;70.97;101232.09;5018383;28;20052;-90
2022/03/22 05:57:37;;;;;;;16.10;12.32;;;;;;;8.75;71.27;101239.03;4999718;28;20518;-90
2022/03/22 06:00:04;;;;;;;18.20;12.35;;;;;;;8.66;71.32;101238.75;5003537;28;20061;-90
2022/03/22 06:02:30;;;;;;;16.42;12.15;;;;;;;8.69;71.33;101234.09;5017003;28;20036;-90
2022/03/22 06:04:55;;;;;;;19.90;12.10;;;;;;;8.78;71.34;101227.34;5016613;28;20029;-91
2022/03/22 06:07:21;;;;;;;17.52;11.73;;;;;;;8.84;70.97;101238.47;5019737;28;20025;-90
2022/03/22 06:09:47;;;;;;;18.77;12.65;;;;;;;8.89;70.64;101240.84;5001388;28;20049;-92
2022/03/22 06:12:14;;;;;;;15.95;12.95;;;;;;;8.90;70.77;101242.56;5002790;28;20105;-89
2022/03/22 06:14:40;;;;;;;17.95;12.55;;;;;;;8.92;70.99;101246.00;5000497;28;20864;-90
2022/03/22 06:17:05;;;;;;;16.75;12.43;;;;;;;8.94;70.80;101254.75;4998136;28;20095;-91
2022/03/22 06:19:32;;;;;;;16.27;12.02;;;;;;;8.97;71.04;101251.03;5000840;28;20403;-90
2022/03/22 06:21:57;;;;;;;21.10;13.52;;;;;;;8.94;71.04;101254.75;5004198;28;20483;-91
2022/03/22 06:24:22;;;;;;;23.58;13.10;;;;;;;8.93;70.76;101262.84;5005981;28;20048;-91
2022/03/22 06:26:48;;;;;;;15.77;12.20;;;;;;;8.94;70.84;101260.09;5007167;28;20049;-91
2022/03/22 06:29:13;;;;;;;19.42;13.60;;;;;;;9.01;70.69;101258.78;5004682;28;20387;-91
2022/03/22 06:31:38;;;;;;;18.40;12.82;;;;;;;9.04;71.22;101260.41;5004405;28;20450;-90
2022/03/22 06:34:04;;;;;;;19.08;13.57;;;;;;;9.06;71.31;101259.34;5003059;28;20109;-91
2022/03/22 06:36:30;;;;;;;21.50;13.95;;;;;;;9.06;71.19;101261.16;5021355;28;20021;-91
2022/03/22 06:38:55;;;;;;;18.67;13.85;;;;;;;9.09;71.47;101260.97;5005954;28;20034;-91
2022/03/22 06:41:20;;;;;;;17.95;14.18;;;;;;;9.09;71.82;101259.16;5004944;28;20034;-91
2022/03/22 06:43:46;;;;;;;21.05;14.15;;;;;;;8.99;72.10;101263.38;5004563;28;20029;-91
2022/03/22 06:46:11;;;;;;;21.42;13.85;;;;;;;8.95;72.60;101269.81;5003746;28;20379;-91
2022/03/22 06:48:37;;;;;;;23.02;13.95;;;;;;;8.96;72.42;101265.34;5022354;28;20029;-92
2022/03/22 06:51:02;;;;;;;19.90;14.13;;;;;;;9.03;73.00;101264.03;5003369;28;20034;-92
2022/03/22 06:53:27;;;;;;;20.98;14.48;;;;;;;9.09;72.91;101263.66;5004981;28;20046;-91
2022/03/22 06:55:53;;;;;;;20.98;14.50;;;;;;;9.12;72.97;101272.31;5002806;28;20029;-91
2022/03/22 06:58:21;;;;;;;20.92;14.45;;;;;;;9.12;73.12;101268.78;5003996;28;20038;-91
2022/03/22 07:00:48;;;;;;;21.63;14.23;;;;;;;9.10;73.50;101270.69;5017811;28;20396;-91
2022/03/22 07:03:13;;;;;;;17.45;13.18;;;;;;;9.08;73.56;101265.47;5005384;28;20037;-91
2022/03/22 07:05:39;;;;;;;21.00;13.52;;;;;;;9.14;73.72;101269.56;5014428;28;20039;-90
2022/03/22 07:08:04;;;;;;;16.73;13.45;;;;;;;9.17;73.63;101272.03;5015004;28;20029;-91
2022/03/22 07:10:33;;;;;;;20.27;13.25;;;;;;;9.19;73.90;101270.13;5011346;28;20025;-92
2022/03/22 07:13:06;;;;;;;21.05;14.40;;;;;;;9.20;74.10;101271.81;5007722;28;20425;-92
2022/03/22 07:15:38;;;;;;;18.50;13.77;;;;;;;9.24;74.17;101272.50;5014296;28;20068;-93
2022/03/22 07:18:08;;;;;;;23.27;13.25;;;;;;;9.29;74.40;101271.25;5007376;28;20056;-92
2022/03/22 07:20:35;;;;;;;21.48;13.23;;;;;;;9.33;74.27;101272.75;5027603;28;20124;-92
2022/03/22 07:23:00;;;;;;;19.13;12.85;;;;;;;9.39;74.24;101274.19;5004351;28;20041;-92
2022/03/22 07:25:26;;;;;;;19.00;13.70;;;;;;;9.43;74.34;101273.03;5006024;28;20471;-92
2022/03/22 07:27:52;;;;;;;17.42;13.30;;;;;;;9.46;73.75;101283.53;5007451;28;20037;-92
2022/03/22 07:30:17;;;;;;;18.05;13.30;;;;;;;9.50;74.00;101285.06;5009550;28;20072;-93
2022/03/22 07:32:44;;;;;;;17.20;12.90;;;;;;;9.54;73.95;101280.38;5005298;28;20112;-91
2022/03/22 07:35:11;;;;;;;17.17;12.77;;;;;;;9.56;74.26;101287.34;5017506;28;20049;-92
2022/03/22 07:37:37;;;;;;;17.20;12.18;;;;;;;9.58;74.26;101288.09;5030839;28;20026;-91
2022/03/22 07:40:05;;;;;;;17.15;12.40;;;;;;;9.63;74.08;101285.97;5021536;28;20032;-91
2022/03/22 07:42:31;;;;;;;20.40;13.77;;;;;;;9.66;73.59;101285.78;5006280;28;20021;-92
2022/03/22 07:44:58;;;;;;;19.30;13.18;;;;;;;9.70;73.17;101289.09;5025734;28;20075;-91
2022/03/22 07:47:24;;;;;;;17.60;13.02;;;;;;;9.73;72.14;101284.41;5013809;28;20112;-91
2022/03/22 07:55:17;;;;;;;20.52;12.75;;;;;;;9.85;70.99;101284.56;5018071;28;20060;-92
2022/03/22 07:57:43;;;;;;;18.38;12.70;;;;;;;9.87;70.67;101288.84;5002362;28;20181;-91
2022/03/22 08:00:09;;;;;;;21.60;13.25;;;;;;;9.89;69.40;101284.28;5003028;28;20472;-92
2022/03/22 08:02:36;;;;;;;19.45;12.98;;;;;;;9.90;69.48;101288.66;5004028;28;20030;-91
2022/03/22 08:05:04;;;;;;;20.27;12.60;;;;;;;9.93;69.53;101296.50;5008021;28;20104;-91
2022/03/22 08:07:30;;;;;;;18.93;12.77;;;;;;;9.94;68.99;101298.22;5005471;28;20494;-91
2022/03/22 08:09:56;;;;;;;18.73;12.00;;;;;;;9.99;68.73;101303.25;5005099;28;20021;-91
2022/03/22 08:12:21;;;;;;;15.88;11.50;;;;;;;10.02;68.84;101295.91;5007805;28;20041;-91
2022/03/22 08:14:46;;;;;;;16.48;11.95;;;;;;;10.05;68.54;101295.69;5021496;28;20025;-91
2022/03/22 08:17:12;;;;;;;16.08;11.43;;;;;;;10.10;69.15;101301.59;5022167;28;20052;-91
2022/03/22 08:19:37;;;;;;;15.20;11.02;;;;;;;10.12;68.93;101301.47;5003680;28;20091;-92
2022/03/22 08:22:02;;;;;;;16.58;10.90;;;;;;;10.14;68.67;101304.06;5020868;28;20137;-91
2022/03/22 08:24:28;;;;;;;21.77;12.50;;;;;;;10.16;67.61;101296.78;5002987;28;20129;-91
2022/03/22 08:26:53;;;;;;;14.85;11.45;;;;;;;10.19;68.67;101299.25;5003214;28;20030;-91
2022/03/22 08:29:19;;;;;;;15.90;11.40;;;;;;;10.20;67.42;101296.50;5005179;28;20598;-91
2022/03/22 08:31:44;;;;;;;16.42;10.90;;;;;;;10.23;68.00;101301.66;5006959;28;20055;-91
2022/03/22 08:34:09;;;;;;;16.75;10.82;;;;;;;10.25;68.25;101296.19;5003063;28;20049;-92
2022/03/22 08:36:35;;;;;;;15.57;10.30;;;;;;;10.29;68.27;101297.72;5008688;28;20040;-91
2022/03/22 08:39:01;;;;;;;14.77;11.32;;;;;;;10.31;68.36;101296.66;5005208;28;20034;-90
2022/03/22 08:41:26;;;;;;;15.65;11.15;;;;;;;10.34;67.19;101299.13;5004110;28;20034;-91
2022/03/22 08:43:54;;;;;;;15.80;10.60;;;;;;;10.35;66.55;101297.28;5002409;28;20399;-91
2022/03/22 08:46:24;;;;;;;14.63;10.50;;;;;;;10.35;67.10;101298.16;5015961;28;20025;-91
2022/03/22 08:48:51;;;;;;;14.70;10.27;;;;;;;10.37;67.31;101290.03;5003971;28;20038;-91
2022/03/22 08:51:18;;;;;;;15.38;10.32;;;;;;;10.37;67.08;101296.22;5003893;28;20029;-91
2022/03/22 08:53:44;;;;;;;18.02;11.35;;;;;;;10.38;65.98;101297.94;5004873;28;20565;-91
2022/03/22 08:56:10;;;;;;;16.60;10.32;;;;;;;10.41;62.92;101291.56;5005514;28;20061;-91
2022/03/22 08:58:35;;;;;;;17.08;10.23;;;;;;;10.37;63.44;101290.88;5003254;28;20029;-91
2022/03/22 09:01:00;;;;;;;15.35;9.38;;;;;;;10.38;64.15;101287.25;5004344;28;20021;-91
2022/03/22 09:03:27;;;;;;;13.45;9.75;;;;;;;10.42;63.87;101287.06;5006060;28;20675;-91
2022/03/22 09:08:37;;;;;;;15.82;9.82;;;;;;;10.44;61.99;101283.31;5017884;28;20064;-91
2022/03/22 09:11:04;;;;;;;13.07;8.95;;;;;;;10.48;63.07;101275.94;5003008;28;20060;-91
2022/03/22 09:13:29;;;;;;;13.60;9.13;;;;;;;10.50;62.32;101274.88;5003860;28;20044;-92
2022/03/22 09:15:55;;;;;;;14.48;9.25;;;;;;;10.52;62.68;101277.47;5000011;28;20021;-90
2022/03/22 09:18:21;;;;;;;13.55;8.88;;;;;;;10.53;61.41;101273.81;5000544;28;20059;-91
2022/03/22 09:20:46;;;;;;;13.63;8.30;;;;;;;10.56;62.25;101270.94;5002870;28;20041;-92
2022/03/22 09:23:12;;;;;;;14.60;8.80;;;;;;;10.58;63.52;101275.22;5004576;28;20021;-91
2022/03/22 09:25:39;;;;;;;14.32;9.13;;;;;;;10.60;64.40;101277.78;5002380;28;20033;-91
2022/03/22 09:28:06;;;;;;;12.93;8.88;;;;;;;10.62;64.00;101274.03;5016083;28;20032;-91
2022/03/22 09:30:32;;;;;;;13.98;8.73;;;;;;;10.64;64.44;101265.91;5020421;28;20033;-91
2022/03/22 09:32:58;;;;;;;12.18;8.07;;;;;;;10.65;65.30;101264.94;5027271;28;20033;-92
2022/03/22 09:35:23;;;;;;;16.58;9.00;;;;;;;10.68;65.79;101262.06;5003835;28;20025;-91
2022/03/22 09:37:50;;;;;;;13.52;8.85;;;;;;;10.68;61.13;101259.38;5003858;28;20033;-91
2022/03/22 09:40:18;;;;;;;13.00;8.68;;;;;;;10.67;60.40;101258.53;5001804;28;20400;-91
2022/03/22 09:42:45;;;;;;;15.95;9.25;;;;;;;10.67;60.59;101255.00;5000768;28;20514;-91
2022/03/22 09:45:13;;;;;;;12.88;8.35;;;;;;;10.66;59.58;101256.81;5004024;28;20029;-91
2022/03/22 09:47:41;;;;;;;14.05;8.55;;;;;;;10.72;61.66;101260.88;5019292;28;20517;-91
2022/03/22 09:50:09;;;;;;;11.18;8.02;;;;;;;10.76;60.96;101256.16;5002921;28;20038;-91
2022/03/22 09:52:35;;;;;;;11.27;7.70;;;;;;;10.78;60.22;101254.25;5000999;28;20120;-91
2022/03/22 09:55:00;;;;;;;11.27;8.05;;;;;;;10.79;61.18;101254.13;5001650;28;20053;-91
2022/03/22 09:57:26;;;;;;;12.07;7.70;;;;;;;10.81;63.05;101252.22;5003650;28;20615;-91
2022/03/22 09:59:51;;;;;;;11.80;7.30;;;;;;;10.82;60.70;101253.06;5017551;28;20510;-91
2022/03/22 10:02:29;;;;;;;13.38;7.20;;;;;;;10.91;57.53;101247.94;5003241;28;20025;-91
2022/03/22 10:04:55;;;;;;;13.38;7.90;;;;;;;10.88;59.88;101242.81;5004532;28;20037;-91
2022/03/22 10:07:21;;;;;;;14.25;7.72;;;;;;;10.90;58.05;101243.56;5000577;28;20041;-91
2022/03/22 10:09:58;;;;;;;13.80;9.00;;;;;;;11.15;56.92;101247.16;5002363;28;20026;-91
2022/03/22 10:12:35;;;;;;;13.77;8.68;;;;;;;11.10;58.52;101250.16;5009368;28;20507;-91
2022/03/22 10:15:10;;;;;;;16.13;9.93;;;;;;;11.11;58.93;101251.88;5018024;28;20585;-91
2022/03/22 10:17:36;;;;;;;15.60;10.18;;;;;;;11.18;58.64;101241.59;5001710;28;20064;-92
2022/03/22 10:20:05;;;;;;;22.25;11.15;;;;;;;11.37;58.28;101244.66;5017620;28;20069;-91
2022/03/22 10:22:30;;;;;;;;;;;;;;;11.32;57.38;101238.75;5003308;28;20034;-91
2022/03/22 10:25:02;;;;;;;14.48;9.25;;;;;;;11.22;58.28;101241.25;5003333;28;19920;-91
2022/03/22 10:27:32;;;;;;;11.98;8.75;;;;;;;11.14;59.81;101235.59;4999142;28;20026;-90
2022/03/22 10:30:00;;;;;;;13.52;9.52;;;;;;;11.14;61.19;101238.28;4995966;28;20030;-90
2022/03/22 10:32:50;;;;;;;15.38;9.55;;;;;;;11.22;60.37;101235.91;5012119;28;20583;-90
2022/03/22 10:35:21;;;;;;;16.90;9.05;;;;;;;11.27;57.96;101240.91;4996748;28;20033;-90
2022/03/22 10:37:52;;;;;;;12.27;8.93;;;;;;;11.23;58.43;101234.94;4996332;28;20021;-90
2022/03/22 10:40:34;;;;;;;13.63;9.18;;;;;;;11.19;60.49;101229.91;4996250;28;20050;-90
2022/03/22 10:43:04;;;;;;;19.67;10.07;;;;;;;11.30;59.87;101233.50;5012057;28;20034;-90
2022/03/22 10:45:39;;;;;;;17.05;9.45;;;;;;;11.26;60.56;101234.69;4995824;28;20033;-91
2022/03/22 10:48:05;;;;;;;16.42;9.65;;;;;;;11.28;60.08;101235.44;5011939;28;20033;-90
2022/03/22 10:50:30;;;;;;;16.73;10.43;;;;;;;11.28;60.10;101235.44;4995843;28;20629;-90
2022/03/22 10:52:57;;;;;;;16.35;10.23;;;;;;;11.32;60.58;101231.59;4995766;28;20107;-91
2022/03/22 10:55:24;;;;;;;17.25;10.48;;;;;;;11.40;60.28;101231.06;4995451;28;20050;-90
2022/03/22 10:57:52;;;;;;;13.70;9.35;;;;;;;11.36;62.29;101234.91;4995539;28;20110;-91
2022/03/22 11:00:18;;;;;;;17.73;10.48;;;;;;;11.39;61.99;101225.81;5011964;28;20034;-91
2022/03/22 11:02:47;;;;;;;19.10;10.65;;;;;;;11.52;60.56;101224.78;4995391;28;20025;-91
2022/03/22 11:05:14;;;;;;;17.42;11.20;;;;;;;11.64;61.00;101223.88;4995640;28;20018;-90
2022/03/22 11:07:40;;;;;;;14.63;9.48;;;;;;;11.56;61.40;101226.28;4995253;28;20026;-91
2022/03/22 11:10:06;;;;;;;12.30;6.78;;;;;;;11.52;59.39;101219.44;4998584;28;20480;-90
2022/03/22 11:12:33;;;;;;;11.07;6.43;;;;;;;11.59;56.69;101219.84;4998976;28;20109;-90
2022/03/22 11:14:59;;;;;;;12.10;6.32;;;;;;;11.58;55.75;101216.31;4999138;28;20021;-91
2022/03/22 11:17:27;;;;;;;6.95;4.25;;;;;;;11.64;52.17;101218.53;4998854;28;20109;-90
2022/03/22 11:19:58;;;;;;;6.72;4.47;;;;;;;11.55;54.06;101218.34;4999087;28;20040;-90
2022/03/22 11:22:23;;;;;;;10.40;5.30;;;;;;;11.62;53.51;101217.78;4999540;28;20034;-90
2022/03/22 11:24:49;;;;;;;12.68;6.05;;;;;;;11.86;52.23;101212.47;4999040;28;20467;-90
2022/03/22 11:27:14;;;;;;;11.68;6.28;;;;;;;11.95;51.85;101213.59;5015283;28;20026;-90
2022/03/22 11:29:40;;;;;;;10.70;6.22;;;;;;;12.16;51.39;101211.13;4998850;28;20033;-91
2022/03/22 11:34:51;;;;;;;9.55;5.72;;;;;;;12.13;51.25;101206.84;5029655;28;20049;-90
2022/03/22 11:37:28;;;;;;;11.40;5.88;;;;;;;11.93;50.97;101215.53;4998411;28;20022;-91
2022/03/22 11:42:37;;;;;;;10.15;5.18;;;;;;;12.07;48.19;101204.63;5015367;28;20453;-91
2022/03/22 11:45:08;;;;;;;10.20;5.53;;;;;;;12.16;48.00;101209.28;4998435;28;20053;-91